Eagle San Antonio — 9V9330 — position and weather

sailwx.info

Track history (hours):
 
Tides and Currents Weather Stations Pressure Air Temp Water Temp Dewpoint Dewpoint Depression Visibility Wind Speed Wind Dir Waves Ship Positions

Eagle San Antonio

Last reported at 2014-Jun-14 07:31 UTC. Time now 2014-Jul-24 17:05 UTC.
Position N 33°29' W 013°36'.
Warning: this ship's position is 40 days out of date.

Length 274 m; draft 9.3 m.

Type: Tanker. MMSI: 566453000.

Date/timePositionNaut miles runAvg speedWind from/ knotsBaromVisibWave heightAir tempDewpointWater temp
2014-Jun-14 07:31N 33°29' W 013°36'1212.4
2014-Jun-14 06:33N 33°41' W 013°32'1312.7
2014-Jun-14 05:33N 33°53' W 013°29'1312.7
2014-Jun-14 04:33N 34°06' W 013°26'1412.5
2014-Jun-14 03:28N 34°19' W 013°22'1112.5
2014-Jun-14 02:33N 34°30' W 013°19'1412.5
2014-Jun-14 01:24N 34°44' W 013°15'1012.2
2014-Jun-14 00:34N 34°54' W 013°13'1212.2
2014-Jun-13 23:33N 35°06' W 013°10'1212.0
2014-Jun-13 22:33N 35°18' W 013°07'1212.4
2014-Jun-13 21:33N 35°30' W 013°03'1212.1
2014-Jun-13 20:33N 35°42' W 012°60'1211.8
2014-Jun-13 19:33N 35°53' W 012°57'1211.9
2014-Jun-13 18:33N 36°05' W 012°53'1212.2
2014-Jun-13 17:33N 36°17' W 012°50'1212.3
2014-Jun-13 16:33N 36°29' W 012°47'1212.3
2014-Jun-13 15:33N 36°41' W 012°43'1312.5
2014-Jun-13 14:32N 36°53' W 012°40'1212.5
2014-Jun-13 13:33N 37°05' W 012°36'1312.7
2014-Jun-13 12:33N 37°17' W 012°33'1212.5
2014-Jun-13 11:33N 37°30' W 012°30'1312.5
2014-Jun-13 10:33N 37°42' W 012°27'1312.6
2014-Jun-13 09:32N 37°54' W 012°23'1212.8
2014-Jun-13 08:34N 38°06' W 012°20'1312.7
2014-Jun-13 07:33N 38°19' W 012°16'1312.6
2014-Jun-13 06:33N 38°31' W 012°12'1312.9
2014-Jun-13 05:33N 38°44' W 012°09'1612.7
2014-Jun-13 04:19N 38°59' W 012°04'1012.7
2014-Jun-13 03:33N 39°09' W 012°02'1312.7
2014-Jun-13 02:32N 39°21' W 011°58'1212.3
2014-Jun-13 01:32N 39°33' W 011°55'1212.5
2014-Jun-13 00:33N 39°45' W 011°51'1212.3
2014-Jun-12 23:32N 39°58' W 011°48'1212.4
2014-Jun-12 22:33N 40°09' W 011°44'  
2014-Jun-10 06:32N 50°11' W 001°49'29 9.7
2014-Jun-10 03:33N 50°19' W 001°05'1211.6
2014-Jun-10 02:33N 50°22' W 000°47'1312.7
2014-Jun-10 01:33N 50°25' W 000°28'1313.3
2014-Jun-10 00:33N 50°29' W 000°08'1313.2
2014-Jun-09 23:33N 50°32' E 000°12'1312.8
2014-Jun-09 22:33N 50°36' E 000°32'1212.0
2014-Jun-09 21:33N 50°42' E 000°48'1111.4
2014-Jun-09 20:33N 50°48' E 001°03'1110.9
2014-Jun-09 19:33N 50°54' E 001°17'1211.7
2014-Jun-09 18:33N 51°03' E 001°29'1413.6
2014-Jun-09 17:34N 51°13' E 001°44'1414.0
2014-Jun-09 16:34N 51°25' E 001°56'1413.5
2014-Jun-09 15:33N 51°35' E 002°09'1313.1
2014-Jun-09 14:33N 51°45' E 002°23'1312.4
2014-Jun-09 13:32N 51°54' E 002°37'1511.6
2014-Jun-09 12:15N 52°02' E 002°58'912.0
2014-Jun-09 11:31N 52°03' E 003°12'1111.1
2014-Jun-09 10:31N 52°07' E 003°29'4 4.3
2014-Jun-09 09:33N 52°08' E 003°35'1110.8
2014-Jun-09 08:33N 52°03' E 003°51'1111.4
2014-Jun-09 07:33N 51°58' E 004°07'4 0.6
2014-Jun-09 01:32N 51°55' E 004°12'0 0.0
2014-Jun-09 00:11N 51°55' E 004°12'0 0.0
2014-Jun-08 22:32N 51°55' E 004°12'0 0.0
2014-Jun-08 06:26N 51°55' E 004°12'0 0.0
2014-Jun-08 04:26N 51°55' E 004°12'0 0.0
2014-Jun-08 03:32N 51°55' E 004°12'0 0.0
2014-Jun-08 02:25N 51°55' E 004°12'0 0.0
2014-Jun-08 01:08N 51°55' E 004°12'0 0.1
2014-Jun-08 00:26N 51°55' E 004°12'1 1.7
2014-Jun-07 23:34N 51°56' E 004°10'8 7.5
2014-Jun-07 22:34N 52°00' E 003°60'1111.0
2014-Jun-07 21:33N 52°01' E 003°42'1312.3
2014-Jun-07 20:31N 51°58' E 003°22'1313.0
2014-Jun-07 19:32N 51°51' E 003°04'1412.9
2014-Jun-07 18:27N 51°47' E 002°43'1112.2
2014-Jun-07 17:32N 51°39' E 002°29'1211.9
2014-Jun-07 16:33N 51°31' E 002°16'1111.1
2014-Jun-07 15:32N 51°22' E 002°04'1010.7
2014-Jun-07 14:34N 51°15' E 001°52'1010.3
2014-Jun-07 13:33N 51°07' E 001°42'1010.1
2014-Jun-07 12:34N 50°59' E 001°32'2510.9
2014-Jun-07 10:17N 50°38' E 001°12'911.7
2014-Jun-07 09:33N 50°32' E 001°02'1211.8
2014-Jun-07 08:33N 50°27' E 000°45'1411.9
2014-Jun-07 07:23N 50°23' E 000°24'1012.0
2014-Jun-07 06:33N 50°20' E 000°09'1812.3
2014-Jun-07 05:08N 50°15' W 000°17'3712.7
2014-Jun-07 02:15N 49°58' W 001°08'  
Track history (hours):
 
Tides and Currents Weather Stations Pressure Air Temp Water Temp Dewpoint Dewpoint Depression Visibility Wind Speed Wind Dir Waves Ship Positions

Eagle San Antonio

Last reported at 2014-Jun-14 07:31 UTC. Time now 2014-Jul-24 17:05 UTC.
Position N 33°29' W 013°36'.
Warning: this ship's position is 40 days out of date.

Length 274 m; draft 9.3 m.

Type: Tanker. MMSI: 566453000.

Date/timePositionNaut miles runAvg speedWind from/ knotsBaromVisibWave heightAir tempDewpointWater temp
2014-Jun-14 07:31N 33°29' W 013°36'1212.4
2014-Jun-14 06:33N 33°41' W 013°32'1312.7
2014-Jun-14 05:33N 33°53' W 013°29'1312.7
2014-Jun-14 04:33N 34°06' W 013°26'1412.5
2014-Jun-14 03:28N 34°19' W 013°22'1112.5
2014-Jun-14 02:33N 34°30' W 013°19'1412.5
2014-Jun-14 01:24N 34°44' W 013°15'1012.2
2014-Jun-14 00:34N 34°54' W 013°13'1212.2
2014-Jun-13 23:33N 35°06' W 013°10'1212.0
2014-Jun-13 22:33N 35°18' W 013°07'1212.4
2014-Jun-13 21:33N 35°30' W 013°03'1212.1
2014-Jun-13 20:33N 35°42' W 012°60'1211.8
2014-Jun-13 19:33N 35°53' W 012°57'1211.9
2014-Jun-13 18:33N 36°05' W 012°53'1212.2
2014-Jun-13 17:33N 36°17' W 012°50'1212.3
2014-Jun-13 16:33N 36°29' W 012°47'1212.3
2014-Jun-13 15:33N 36°41' W 012°43'1312.5
2014-Jun-13 14:32N 36°53' W 012°40'1212.5
2014-Jun-13 13:33N 37°05' W 012°36'1312.7
2014-Jun-13 12:33N 37°17' W 012°33'1212.5
2014-Jun-13 11:33N 37°30' W 012°30'1312.5
2014-Jun-13 10:33N 37°42' W 012°27'1312.6
2014-Jun-13 09:32N 37°54' W 012°23'1212.8
2014-Jun-13 08:34N 38°06' W 012°20'1312.7
2014-Jun-13 07:33N 38°19' W 012°16'1312.6
2014-Jun-13 06:33N 38°31' W 012°12'1312.9
2014-Jun-13 05:33N 38°44' W 012°09'1612.7
2014-Jun-13 04:19N 38°59' W 012°04'1012.7
2014-Jun-13 03:33N 39°09' W 012°02'1312.7
2014-Jun-13 02:32N 39°21' W 011°58'1212.3
2014-Jun-13 01:32N 39°33' W 011°55'1212.5
2014-Jun-13 00:33N 39°45' W 011°51'1212.3
2014-Jun-12 23:32N 39°58' W 011°48'1212.4
2014-Jun-12 22:33N 40°09' W 011°44'  
2014-Jun-10 06:32N 50°11' W 001°49'29 9.7
2014-Jun-10 03:33N 50°19' W 001°05'1211.6
2014-Jun-10 02:33N 50°22' W 000°47'1312.7
2014-Jun-10 01:33N 50°25' W 000°28'1313.3
2014-Jun-10 00:33N 50°29' W 000°08'1313.2
2014-Jun-09 23:33N 50°32' E 000°12'1312.8
2014-Jun-09 22:33N 50°36' E 000°32'1212.0
2014-Jun-09 21:33N 50°42' E 000°48'1111.4
2014-Jun-09 20:33N 50°48' E 001°03'1110.9
2014-Jun-09 19:33N 50°54' E 001°17'1211.7
2014-Jun-09 18:33N 51°03' E 001°29'1413.6
2014-Jun-09 17:34N 51°13' E 001°44'1414.0
2014-Jun-09 16:34N 51°25' E 001°56'1413.5
2014-Jun-09 15:33N 51°35' E 002°09'1313.1
2014-Jun-09 14:33N 51°45' E 002°23'1312.4
2014-Jun-09 13:32N 51°54' E 002°37'1511.6
2014-Jun-09 12:15N 52°02' E 002°58'912.0
2014-Jun-09 11:31N 52°03' E 003°12'1111.1
2014-Jun-09 10:31N 52°07' E 003°29'4 4.3
2014-Jun-09 09:33N 52°08' E 003°35'1110.8
2014-Jun-09 08:33N 52°03' E 003°51'1111.4
2014-Jun-09 07:33N 51°58' E 004°07'4 0.6
2014-Jun-09 01:32N 51°55' E 004°12'0 0.0
2014-Jun-09 00:11N 51°55' E 004°12'0 0.0
2014-Jun-08 22:32N 51°55' E 004°12'0 0.0
2014-Jun-08 06:26N 51°55' E 004°12'0 0.0
2014-Jun-08 04:26N 51°55' E 004°12'0 0.0
2014-Jun-08 03:32N 51°55' E 004°12'0 0.0
2014-Jun-08 02:25N 51°55' E 004°12'0 0.0
2014-Jun-08 01:08N 51°55' E 004°12'0 0.1
2014-Jun-08 00:26N 51°55' E 004°12'1 1.7
2014-Jun-07 23:34N 51°56' E 004°10'8 7.5
2014-Jun-07 22:34N 52°00' E 003°60'1111.0
2014-Jun-07 21:33N 52°01' E 003°42'1312.3
2014-Jun-07 20:31N 51°58' E 003°22'1313.0
2014-Jun-07 19:32N 51°51' E 003°04'1412.9
2014-Jun-07 18:27N 51°47' E 002°43'1112.2
2014-Jun-07 17:32N 51°39' E 002°29'1211.9
2014-Jun-07 16:33N 51°31' E 002°16'1111.1
2014-Jun-07 15:32N 51°22' E 002°04'1010.7
2014-Jun-07 14:34N 51°15' E 001°52'1010.3
2014-Jun-07 13:33N 51°07' E 001°42'1010.1
2014-Jun-07 12:34N 50°59' E 001°32'2510.9
2014-Jun-07 10:17N 50°38' E 001°12'911.7
2014-Jun-07 09:33N 50°32' E 001°02'1211.8
2014-Jun-07 08:33N 50°27' E 000°45'1411.9
2014-Jun-07 07:23N 50°23' E 000°24'1012.0
2014-Jun-07 06:33N 50°20' E 000°09'1812.3
2014-Jun-07 05:08N 50°15' W 000°17'3712.7
2014-Jun-07 02:15N 49°58' W 001°08'  

Dump ship's entire track history